Quick Links (Output Below):   Max & Min Temps   /   Climate Reports   /   Zone Forecasts
River Forecasts   /   Forestry Forecasts   /   Aviation Forecasts   /   Radars   /   Features

Terminal Aerodrome Forecast (Little Rock)

Pick a Site:
Arkadelphia | El Dorado | Fayetteville | Fort Smith | Harrison | Highfill | Hot Springs | Jonesboro
Little Rock | Monticello | Mountain Home | Pine Bluff | Texarkana
 Forecast 

KLIT 262320Z 2700/2724 22007KT P6SM -SHRA VCTS SCT050CB BKN100
     FM270800 16008KT P6SM VCTS BKN025 OVC050CB
     FM271200 15008KT 6SM BR OVC015
     FM271500 16010KT 6SM BR VCTS OVC025CB PROB30 2718/2724 3SM
      -TSRA BR OVC012CB=


 Latest METARs (Observations) 
How to Decode METARs
04Z KLIT 270353Z 13004KT 7SM -RA SCT045 SCT060 BKN110 OVC250 22/20
         A2988 RMK AO2 RAB50 SLP117 P0000 T02220200
         
03Z KLIT 270253Z 11004KT 10SM SCT049 BKN070 BKN140 OVC250 22/20 A2990
         RMK AO2 SLP122 T02220200 58002
         
02Z KLIT 270153Z 09004KT 10SM BKN140 OVC250 22/20 A2990 RMK AO2 SLP125
         T02220200
         
01Z KLIT 270053Z 11005KT 10SM FEW070 BKN140 OVC250 23/21 A2992 RMK AO2
         SLP130 CB TOP DSNT N T02280206
         
00Z KLIT 262353Z 16006KT 10SM FEW070 SCT110 OVC250 23/19 A2990 RMK AO2
         RAE29 SLP125 P0001 60004 T02280194 10300 20228 55015
         
***** Today's Observations (Above) *****


23Z KLIT 262253Z 21008KT 10SM -RA FEW024 SCT034 BKN095 OVC250 24/19
         A2986 RMK AO2 PK WND 20030/2237 RAB49 PRESFR SLP110 CB DSNT
         SE MOV NE CIG LWR SE P0000 T02390189
         
22Z KLIT 262153Z 19007KT 10SM FEW039 BKN080 OVC250 27/23 A2991 RMK AO2
         RAB2058E20B42E50 TSB20E42 SLP127 CB DSNT N-NE AND E-SE MOV NE
         P0000 T02720228
         
21Z KLIT 262053Z 20008KT 10SM FEW030 BKN085 OVC250 28/23 A2995 RMK AO2
         SLP140 TCU DSNT SW 60003 T02780228 56011
         
20Z KLIT 261953Z 20010KT 10SM BKN028 BKN045 OVC055 29/23 A2996 RMK AO2
         SLP143 T02890228
         
19Z KLIT 261853Z 22006KT 10SM BKN028 BKN039 OVC048 29/24 A2996 RMK AO2
         RAB31E47 SLP145 P0003 T02940239
         
***** Yesterday's Observations (Above) *****


Back to Main Page
http://www.srh.noaa.gov/lzk/qfcst.php

USA.gov is the U.S. government's official web portal to all federal, state and local government web resources and services.